sensor_id;sensor_type;location;lat;lon;timestamp;pressure;altitude;pressure_sealevel;temperature;humidity
41062;BME280;26812;42.662;23.352;2023-02-26T00:00:15;93768.84;;;15.29;37.65
41062;BME280;26812;42.662;23.352;2023-02-26T00:02:42;93774.03;;;15.00;38.30
41062;BME280;26812;42.662;23.352;2023-02-26T00:05:10;93765.00;;;14.93;37.69
41062;BME280;26812;42.662;23.352;2023-02-26T00:07:37;93770.44;;;14.93;37.76
41062;BME280;26812;42.662;23.352;2023-02-26T00:10:04;93762.38;;;15.00;37.18
41062;BME280;26812;42.662;23.352;2023-02-26T00:12:30;93746.75;;;14.86;37.19
41062;BME280;26812;42.662;23.352;2023-02-26T00:14:56;93765.31;;;14.84;36.86
41062;BME280;26812;42.662;23.352;2023-02-26T00:20:00;93732.03;;;14.87;36.62
41062;BME280;26812;42.662;23.352;2023-02-26T00:22:25;93731.47;;;15.08;36.94
41062;BME280;26812;42.662;23.352;2023-02-26T00:24:51;93758.00;;;14.88;37.07
41062;BME280;26812;42.662;23.352;2023-02-26T00:27:17;93759.41;;;15.12;36.69
41062;BME280;26812;42.662;23.352;2023-02-26T00:29:42;93752.31;;;15.00;36.92
41062;BME280;26812;42.662;23.352;2023-02-26T00:32:09;93753.38;;;14.92;36.72
41062;BME280;26812;42.662;23.352;2023-02-26T00:34:35;93754.94;;;14.93;36.75
41062;BME280;26812;42.662;23.352;2023-02-26T00:42:31;93747.84;;;14.81;37.74
41062;BME280;26812;42.662;23.352;2023-02-26T00:45:04;93734.66;;;14.80;37.03
41062;BME280;26812;42.662;23.352;2023-02-26T00:47:41;93722.13;;;14.68;36.89
41062;BME280;26812;42.662;23.352;2023-02-26T00:50:12;93732.91;;;14.98;36.16
41062;BME280;26812;42.662;23.352;2023-02-26T00:55:22;93732.59;;;15.03;35.92
41062;BME280;26812;42.662;23.352;2023-02-26T00:57:48;93709.28;;;14.99;35.91
41062;BME280;26812;42.662;23.352;2023-02-26T01:00:14;93736.72;;;14.90;36.07
41062;BME280;26812;42.662;23.352;2023-02-26T01:02:40;93720.06;;;14.91;36.29
41062;BME280;26812;42.662;23.352;2023-02-26T01:05:06;93721.28;;;14.98;36.23
41062;BME280;26812;42.662;23.352;2023-02-26T01:10:19;93695.66;;;14.91;34.51
41062;BME280;26812;42.662;23.352;2023-02-26T01:12:45;93712.47;;;15.08;36.03
41062;BME280;26812;42.662;23.352;2023-02-26T01:15:11;93700.69;;;14.93;36.13
41062;BME280;26812;42.662;23.352;2023-02-26T01:17:52;93712.13;;;14.72;36.64
41062;BME280;26812;42.662;23.352;2023-02-26T01:20:42;93693.31;;;14.90;35.88
41062;BME280;26812;42.662;23.352;2023-02-26T01:23:13;93673.59;;;14.93;34.95
41062;BME280;26812;42.662;23.352;2023-02-26T01:25:58;93667.00;;;14.94;34.96
41062;BME280;26812;42.662;23.352;2023-02-26T01:28:25;93685.69;;;15.03;35.03
41062;BME280;26812;42.662;23.352;2023-02-26T01:31:01;93686.59;;;15.17;34.89
41062;BME280;26812;42.662;23.352;2023-02-26T01:36:24;93670.25;;;15.10;34.76
41062;BME280;26812;42.662;23.352;2023-02-26T01:44:41;93668.00;;;15.19;34.35
41062;BME280;26812;42.662;23.352;2023-02-26T01:47:44;93656.28;;;15.05;34.93
41062;BME280;26812;42.662;23.352;2023-02-26T01:50:17;93636.41;;;14.94;35.17
41062;BME280;26812;42.662;23.352;2023-02-26T01:55:18;93661.41;;;14.73;35.21
41062;BME280;26812;42.662;23.352;2023-02-26T01:57:45;93591.75;;;14.80;34.38
41062;BME280;26812;42.662;23.352;2023-02-26T02:00:12;93643.28;;;14.43;34.85
41062;BME280;26812;42.662;23.352;2023-02-26T02:02:38;93613.75;;;14.72;34.78
41062;BME280;26812;42.662;23.352;2023-02-26T02:05:11;93624.81;;;14.97;34.64
41062;BME280;26812;42.662;23.352;2023-02-26T02:07:39;93640.38;;;15.03;34.56
41062;BME280;26812;42.662;23.352;2023-02-26T02:10:05;93640.28;;;14.96;34.80
41062;BME280;26812;42.662;23.352;2023-02-26T02:12:43;93646.44;;;14.89;34.85
41062;BME280;26812;42.662;23.352;2023-02-26T02:17:49;93655.13;;;14.65;35.42
41062;BME280;26812;42.662;23.352;2023-02-26T02:23:16;93641.97;;;15.08;34.25
41062;BME280;26812;42.662;23.352;2023-02-26T02:31:40;93629.75;;;14.84;34.04
41062;BME280;26812;42.662;23.352;2023-02-26T02:34:10;93646.03;;;14.87;33.71
41062;BME280;26812;42.662;23.352;2023-02-26T02:36:50;93632.34;;;14.70;34.00
41062;BME280;26812;42.662;23.352;2023-02-26T02:39:31;93631.75;;;14.50;34.30
41062;BME280;26812;42.662;23.352;2023-02-26T02:42:18;93644.47;;;14.46;34.77
41062;BME280;26812;42.662;23.352;2023-02-26T02:44:51;93628.53;;;14.78;33.50
41062;BME280;26812;42.662;23.352;2023-02-26T02:47:19;93630.88;;;14.79;34.05
41062;BME280;26812;42.662;23.352;2023-02-26T02:50:01;93641.75;;;14.86;33.56
41062;BME280;26812;42.662;23.352;2023-02-26T02:55:12;93660.38;;;14.88;33.36
41062;BME280;26812;42.662;23.352;2023-02-26T02:57:44;93637.84;;;14.80;33.54
41062;BME280;26812;42.662;23.352;2023-02-26T03:00:12;93658.81;;;14.87;33.49
41062;BME280;26812;42.662;23.352;2023-02-26T03:02:50;93667.00;;;14.94;33.06
41062;BME280;26812;42.662;23.352;2023-02-26T03:05:19;93666.81;;;14.73;33.30
41062;BME280;26812;42.662;23.352;2023-02-26T03:07:53;93672.25;;;14.73;33.42
41062;BME280;26812;42.662;23.352;2023-02-26T03:10:20;93635.81;;;14.70;32.96
41062;BME280;26812;42.662;23.352;2023-02-26T03:12:45;93638.97;;;14.76;33.27
41062;BME280;26812;42.662;23.352;2023-02-26T03:15:11;93659.00;;;15.08;32.60
41062;BME280;26812;42.662;23.352;2023-02-26T03:28:01;93641.31;;;14.40;33.31
41062;BME280;26812;42.662;23.352;2023-02-26T03:35:50;93641.66;;;14.72;32.74
41062;BME280;26812;42.662;23.352;2023-02-26T03:41:07;93616.88;;;14.74;32.87
41062;BME280;26812;42.662;23.352;2023-02-26T03:43:43;93640.56;;;14.80;32.70
41062;BME280;26812;42.662;23.352;2023-02-26T03:46:14;93649.72;;;14.69;32.69
41062;BME280;26812;42.662;23.352;2023-02-26T03:48:42;93626.38;;;14.57;32.69
41062;BME280;26812;42.662;23.352;2023-02-26T03:51:10;93643.34;;;14.47;33.02
41062;BME280;26812;42.662;23.352;2023-02-26T03:53:52;93624.59;;;14.38;32.86
41062;BME280;26812;42.662;23.352;2023-02-26T03:56:24;93635.13;;;14.80;32.80
41062;BME280;26812;42.662;23.352;2023-02-26T03:58:52;93615.34;;;14.76;32.87
41062;BME280;26812;42.662;23.352;2023-02-26T04:01:22;93624.00;;;14.93;32.31
41062;BME280;26812;42.662;23.352;2023-02-26T04:03:56;93628.78;;;15.06;32.37
41062;BME280;26812;42.662;23.352;2023-02-26T04:06:23;93628.53;;;14.78;32.57
41062;BME280;26812;42.662;23.352;2023-02-26T04:08:49;93607.84;;;14.63;32.56
41062;BME280;26812;42.662;23.352;2023-02-26T04:11:18;93605.50;;;14.61;32.61
41062;BME280;26812;42.662;23.352;2023-02-26T04:13:44;93623.78;;;14.68;32.36
41062;BME280;26812;42.662;23.352;2023-02-26T04:16:09;93601.91;;;14.46;32.67
41062;BME280;26812;42.662;23.352;2023-02-26T04:18:35;93600.88;;;14.62;32.58
41062;BME280;26812;42.662;23.352;2023-02-26T04:21:01;93624.78;;;14.93;32.31
41062;BME280;26812;42.662;23.352;2023-02-26T04:23:26;93593.63;;;14.73;32.27
41062;BME280;26812;42.662;23.352;2023-02-26T04:25:52;93606.50;;;14.83;32.31
41062;BME280;26812;42.662;23.352;2023-02-26T04:28:17;93612.84;;;14.57;32.43
41062;BME280;26812;42.662;23.352;2023-02-26T04:30:43;93601.84;;;14.83;32.63
41062;BME280;26812;42.662;23.352;2023-02-26T04:33:08;93577.75;;;14.71;32.10
41062;BME280;26812;42.662;23.352;2023-02-26T04:35:34;93590.56;;;14.78;32.25
41062;BME280;26812;42.662;23.352;2023-02-26T04:37:59;93580.44;;;14.71;32.46
41062;BME280;26812;42.662;23.352;2023-02-26T04:40:25;93550.16;;;14.62;32.76
41062;BME280;26812;42.662;23.352;2023-02-26T04:42:51;93578.66;;;14.93;32.20
41062;BME280;26812;42.662;23.352;2023-02-26T04:45:17;93561.56;;;14.41;32.76
41062;BME280;26812;42.662;23.352;2023-02-26T04:47:42;93575.22;;;14.48;33.55
41062;BME280;26812;42.662;23.352;2023-02-26T04:50:08;93581.91;;;14.24;33.18
41062;BME280;26812;42.662;23.352;2023-02-26T04:52:34;93582.94;;;14.46;33.30
41062;BME280;26812;42.662;23.352;2023-02-26T04:54:59;93551.59;;;14.49;32.35
41062;BME280;26812;42.662;23.352;2023-02-26T04:57:25;93576.59;;;14.72;31.91
41062;BME280;26812;42.662;23.352;2023-02-26T04:59:51;93606.28;;;15.02;31.29
41062;BME280;26812;42.662;23.352;2023-02-26T05:02:16;93599.75;;;15.10;31.49
41062;BME280;26812;42.662;23.352;2023-02-26T05:04:41;93556.69;;;15.05;31.44
41062;BME280;26812;42.662;23.352;2023-02-26T05:07:07;93549.78;;;14.64;32.98
41062;BME280;26812;42.662;23.352;2023-02-26T05:09:32;93581.06;;;14.54;32.27
41062;BME280;26812;42.662;23.352;2023-02-26T05:11:58;93569.63;;;14.71;32.23
41062;BME280;26812;42.662;23.352;2023-02-26T05:14:23;93564.84;;;14.57;32.43
41062;BME280;26812;42.662;23.352;2023-02-26T05:16:48;93571.06;;;14.62;32.50
41062;BME280;26812;42.662;23.352;2023-02-26T05:19:14;93570.00;;;14.36;32.20
41062;BME280;26812;42.662;23.352;2023-02-26T05:21:39;93523.66;;;14.41;31.73
41062;BME280;26812;42.662;23.352;2023-02-26T05:24:05;93526.28;;;14.78;31.35
41062;BME280;26812;42.662;23.352;2023-02-26T05:26:30;93558.13;;;14.88;30.92
41062;BME280;26812;42.662;23.352;2023-02-26T05:28:56;93557.13;;;14.63;32.09
41062;BME280;26812;42.662;23.352;2023-02-26T05:31:22;93573.13;;;14.38;32.89
41062;BME280;26812;42.662;23.352;2023-02-26T05:33:47;93595.44;;;14.24;32.95
41062;BME280;26812;42.662;23.352;2023-02-26T05:36:13;93565.22;;;14.19;32.66
41062;BME280;26812;42.662;23.352;2023-02-26T05:38:38;93529.66;;;14.24;32.05
41062;BME280;26812;42.662;23.352;2023-02-26T05:41:03;93545.50;;;14.63;31.82
41062;BME280;26812;42.662;23.352;2023-02-26T05:43:29;93538.13;;;14.59;31.50
41062;BME280;26812;42.662;23.352;2023-02-26T05:45:55;93569.06;;;14.55;32.36
41062;BME280;26812;42.662;23.352;2023-02-26T05:48:21;93557.63;;;14.72;31.37
41062;BME280;26812;42.662;23.352;2023-02-26T05:50:48;93562.72;;;14.81;30.98
41062;BME280;26812;42.662;23.352;2023-02-26T05:53:13;93546.41;;;14.77;31.18
41062;BME280;26812;42.662;23.352;2023-02-26T05:55:39;93551.72;;;15.18;30.58
41062;BME280;26812;42.662;23.352;2023-02-26T05:58:05;93561.44;;;15.22;30.63
41062;BME280;26812;42.662;23.352;2023-02-26T06:00:30;93551.28;;;15.05;30.93
41062;BME280;26812;42.662;23.352;2023-02-26T06:02:55;93564.34;;;14.96;30.62
41062;BME280;26812;42.662;23.352;2023-02-26T06:05:21;93584.94;;;15.01;30.31
41062;BME280;26812;42.662;23.352;2023-02-26T06:07:47;93573.06;;;15.23;30.33
41062;BME280;26812;42.662;23.352;2023-02-26T06:10:12;93552.91;;;15.24;30.08
41062;BME280;26812;42.662;23.352;2023-02-26T06:12:38;93567.59;;;15.85;29.95
41062;BME280;26812;42.662;23.352;2023-02-26T06:15:04;93570.41;;;15.30;30.38
41062;BME280;26812;42.662;23.352;2023-02-26T06:17:30;93603.94;;;15.59;30.03
41062;BME280;26812;42.662;23.352;2023-02-26T06:19:55;93568.22;;;15.53;29.50
41062;BME280;26812;42.662;23.352;2023-02-26T06:22:21;93592.78;;;15.75;29.62
41062;BME280;26812;42.662;23.352;2023-02-26T06:24:46;93595.63;;;16.00;29.49
41062;BME280;26812;42.662;23.352;2023-02-26T06:27:12;93536.41;;;15.50;29.02
41062;BME280;26812;42.662;23.352;2023-02-26T06:29:37;93541.41;;;15.41;29.26
41062;BME280;26812;42.662;23.352;2023-02-26T06:32:04;93587.88;;;16.09;29.08
41062;BME280;26812;42.662;23.352;2023-02-26T06:34:29;93573.53;;;16.12;28.55
41062;BME280;26812;42.662;23.352;2023-02-26T06:36:55;93600.41;;;16.49;27.95
41062;BME280;26812;42.662;23.352;2023-02-26T06:39:20;93580.59;;;16.38;27.87
41062;BME280;26812;42.662;23.352;2023-02-26T06:41:45;93571.25;;;16.25;27.82
41062;BME280;26812;42.662;23.352;2023-02-26T06:44:11;93570.84;;;16.26;27.83
41062;BME280;26812;42.662;23.352;2023-02-26T06:46:36;93566.66;;;16.82;27.12
41062;BME280;26812;42.662;23.352;2023-02-26T06:49:02;93585.31;;;17.26;26.47
41062;BME280;26812;42.662;23.352;2023-02-26T06:51:27;93570.94;;;17.22;26.41
41062;BME280;26812;42.662;23.352;2023-02-26T06:53:53;93569.78;;;17.20;26.42
41062;BME280;26812;42.662;23.352;2023-02-26T06:56:19;93566.53;;;17.85;25.77
41062;BME280;26812;42.662;23.352;2023-02-26T06:58:44;93539.59;;;18.02;25.21
41062;BME280;26812;42.662;23.352;2023-02-26T07:01:09;93540.16;;;17.57;25.39
41062;BME280;26812;42.662;23.352;2023-02-26T07:03:35;93544.03;;;17.67;25.83
41062;BME280;26812;42.662;23.352;2023-02-26T07:06:00;93551.09;;;17.25;26.03
41062;BME280;26812;42.662;23.352;2023-02-26T07:08:26;93563.91;;;17.39;25.92
41062;BME280;26812;42.662;23.352;2023-02-26T07:10:51;93526.19;;;17.34;25.96
41062;BME280;26812;42.662;23.352;2023-02-26T07:13:17;93510.09;;;17.89;25.19
41062;BME280;26812;42.662;23.352;2023-02-26T07:15:48;93527.31;;;18.45;24.55
41062;BME280;26812;42.662;23.352;2023-02-26T07:18:14;93519.53;;;19.37;23.69
41062;BME280;26812;42.662;23.352;2023-02-26T07:20:40;93518.41;;;18.30;24.48
41062;BME280;26812;42.662;23.352;2023-02-26T07:23:06;93500.31;;;17.99;24.87
41062;BME280;26812;42.662;23.352;2023-02-26T07:25:32;93505.13;;;18.36;24.93
41062;BME280;26812;42.662;23.352;2023-02-26T07:27:57;93504.19;;;18.60;24.18
41062;BME280;26812;42.662;23.352;2023-02-26T07:30:24;93530.63;;;19.19;23.73
41062;BME280;26812;42.662;23.352;2023-02-26T07:32:50;93516.38;;;19.01;23.65
41062;BME280;26812;42.662;23.352;2023-02-26T07:35:16;93526.88;;;19.43;23.53
41062;BME280;26812;42.662;23.352;2023-02-26T07:37:41;93507.53;;;19.31;23.17
41062;BME280;26812;42.662;23.352;2023-02-26T07:40:07;93518.78;;;18.40;23.93
41062;BME280;26812;42.662;23.352;2023-02-26T07:42:33;93534.13;;;18.05;24.74
41062;BME280;26812;42.662;23.352;2023-02-26T07:44:58;93519.03;;;19.08;23.81
41062;BME280;26812;42.662;23.352;2023-02-26T07:47:23;93517.59;;;20.05;22.53
41062;BME280;26812;42.662;23.352;2023-02-26T07:49:55;93553.50;;;20.07;22.42
41062;BME280;26812;42.662;23.352;2023-02-26T07:52:21;93562.41;;;18.95;23.14
41062;BME280;26812;42.662;23.352;2023-02-26T07:54:47;93581.13;;;19.00;23.46
41062;BME280;26812;42.662;23.352;2023-02-26T07:57:12;93552.41;;;19.26;23.15
41062;BME280;26812;42.662;23.352;2023-02-26T07:59:38;93535.94;;;19.37;22.78
41062;BME280;26812;42.662;23.352;2023-02-26T08:02:03;93567.88;;;18.99;23.54
41062;BME280;26812;42.662;23.352;2023-02-26T08:04:28;93559.06;;;19.21;22.96
41062;BME280;26812;42.662;23.352;2023-02-26T08:06:56;93571.13;;;19.24;22.61
41062;BME280;26812;42.662;23.352;2023-02-26T08:09:21;93551.50;;;19.40;22.27
41062;BME280;26812;42.662;23.352;2023-02-26T08:11:47;93522.34;;;19.30;22.91
41062;BME280;26812;42.662;23.352;2023-02-26T08:14:13;93566.16;;;19.60;22.67
41062;BME280;26812;42.662;23.352;2023-02-26T08:16:39;93538.84;;;19.57;23.00
41062;BME280;26812;42.662;23.352;2023-02-26T08:19:04;93548.53;;;19.23;23.75
41062;BME280;26812;42.662;23.352;2023-02-26T08:21:30;93566.59;;;19.10;23.37
41062;BME280;26812;42.662;23.352;2023-02-26T08:23:55;93574.53;;;19.39;22.93
41062;BME280;26812;42.662;23.352;2023-02-26T08:26:21;93575.50;;;18.59;23.72
41062;BME280;26812;42.662;23.352;2023-02-26T08:28:47;93586.56;;;18.97;23.40
41062;BME280;26812;42.662;23.352;2023-02-26T08:31:13;93564.09;;;19.30;23.04
41062;BME280;26812;42.662;23.352;2023-02-26T08:33:39;93567.13;;;20.11;22.45
41062;BME280;26812;42.662;23.352;2023-02-26T08:36:06;93562.00;;;19.82;22.56
41062;BME280;26812;42.662;23.352;2023-02-26T08:38:31;93593.28;;;19.78;22.12
41062;BME280;26812;42.662;23.352;2023-02-26T08:40:59;93600.88;;;19.97;22.34
41062;BME280;26812;42.662;23.352;2023-02-26T08:43:25;93597.06;;;19.91;22.11
41062;BME280;26812;42.662;23.352;2023-02-26T08:45:52;93594.94;;;20.06;22.21
41062;BME280;26812;42.662;23.352;2023-02-26T08:48:18;93620.25;;;20.10;21.63
41062;BME280;26812;42.662;23.352;2023-02-26T08:50:43;93612.38;;;20.15;22.18
41062;BME280;26812;42.662;23.352;2023-02-26T08:53:09;93615.75;;;20.30;21.80
41062;BME280;26812;42.662;23.352;2023-02-26T08:55:34;93608.91;;;19.77;21.76
41062;BME280;26812;42.662;23.352;2023-02-26T08:58:00;93607.22;;;19.91;21.89
41062;BME280;26812;42.662;23.352;2023-02-26T09:00:25;93611.09;;;19.90;21.86
41062;BME280;26812;42.662;23.352;2023-02-26T09:02:51;93614.75;;;20.13;21.64
41062;BME280;26812;42.662;23.352;2023-02-26T09:05:16;93610.59;;;20.02;21.13
41062;BME280;26812;42.662;23.352;2023-02-26T09:07:42;93630.41;;;19.75;21.92
41062;BME280;26812;42.662;23.352;2023-02-26T09:10:08;93611.16;;;19.86;21.56
41062;BME280;26812;42.662;23.352;2023-02-26T09:12:34;93619.00;;;20.18;21.47
41062;BME280;26812;42.662;23.352;2023-02-26T09:15:06;93606.31;;;20.65;21.64
41062;BME280;26812;42.662;23.352;2023-02-26T09:17:31;93630.19;;;20.92;20.81
41062;BME280;26812;42.662;23.352;2023-02-26T09:19:57;93616.13;;;21.17;20.83
41062;BME280;26812;42.662;23.352;2023-02-26T09:22:23;93586.97;;;21.96;19.98
41062;BME280;26812;42.662;23.352;2023-02-26T09:24:49;93609.13;;;21.86;19.54
41062;BME280;26812;42.662;23.352;2023-02-26T09:27:15;93617.63;;;21.91;19.43
41062;BME280;26812;42.662;23.352;2023-02-26T09:29:40;93605.28;;;22.23;19.08
41062;BME280;26812;42.662;23.352;2023-02-26T09:32:06;93617.53;;;21.75;18.95
41062;BME280;26812;42.662;23.352;2023-02-26T09:34:33;93615.41;;;22.66;18.69
41062;BME280;26812;42.662;23.352;2023-02-26T09:36:59;93621.25;;;23.04;18.41
41062;BME280;26812;42.662;23.352;2023-02-26T09:39:24;93594.88;;;23.55;18.20
41062;BME280;26812;42.662;23.352;2023-02-26T09:41:52;93594.38;;;23.76;17.56
41062;BME280;26812;42.662;23.352;2023-02-26T09:44:34;93636.19;;;23.19;18.42
41062;BME280;26812;42.662;23.352;2023-02-26T09:47:19;93603.25;;;23.68;17.92
41062;BME280;26812;42.662;23.352;2023-02-26T09:53:30;93615.75;;;24.72;16.24
41062;BME280;26812;42.662;23.352;2023-02-26T09:56:06;93607.09;;;25.37;16.11
41062;BME280;26812;42.662;23.352;2023-02-26T09:58:36;93622.78;;;25.27;15.99
41062;BME280;26812;42.662;23.352;2023-02-26T10:09:59;93626.94;;;26.83;14.98
41062;BME280;26812;42.662;23.352;2023-02-26T10:12:29;93617.03;;;25.22;16.34
41062;BME280;26812;42.662;23.352;2023-02-26T10:15:02;93596.44;;;25.86;15.69
41062;BME280;26812;42.662;23.352;2023-02-26T10:20:44;93592.31;;;27.80;15.02
41062;BME280;26812;42.662;23.352;2023-02-26T10:25:52;93623.53;;;27.72;14.28
41062;BME280;26812;42.662;23.352;2023-02-26T10:28:36;93575.88;;;27.77;14.42
41062;BME280;26812;42.662;23.352;2023-02-26T10:31:17;93598.81;;;28.60;14.20
41062;BME280;26812;42.662;23.352;2023-02-26T10:34:24;93605.16;;;28.51;13.72
41062;BME280;26812;42.662;23.352;2023-02-26T10:39:28;93550.34;;;27.14;15.48
41062;BME280;26812;42.662;23.352;2023-02-26T10:41:58;93542.66;;;26.78;14.96
41062;BME280;26812;42.662;23.352;2023-02-26T10:44:43;93526.66;;;26.42;15.63
41062;BME280;26812;42.662;23.352;2023-02-26T10:47:39;93525.78;;;26.33;15.02
41062;BME280;26812;42.662;23.352;2023-02-26T10:50:12;93536.00;;;26.23;16.03
41062;BME280;26812;42.662;23.352;2023-02-26T10:52:41;93542.75;;;26.22;15.15
41062;BME280;26812;42.662;23.352;2023-02-26T10:57:41;93546.22;;;24.42;16.87
41062;BME280;26812;42.662;23.352;2023-02-26T11:00:13;93556.53;;;23.97;17.03
41062;BME280;26812;42.662;23.352;2023-02-26T11:02:43;93545.19;;;23.95;17.35
41062;BME280;26812;42.662;23.352;2023-02-26T11:05:19;93524.56;;;23.87;17.39
41062;BME280;26812;42.662;23.352;2023-02-26T11:07:46;93540.78;;;22.71;18.60
41062;BME280;26812;42.662;23.352;2023-02-26T11:10:19;93535.06;;;22.45;19.46
41062;BME280;26812;42.662;23.352;2023-02-26T11:12:46;93537.56;;;22.40;19.21
41062;BME280;26812;42.662;23.352;2023-02-26T11:15:13;93534.28;;;21.46;20.37
41062;BME280;26812;42.662;23.352;2023-02-26T11:17:39;93485.16;;;20.88;20.37
41062;BME280;26812;42.662;23.352;2023-02-26T11:23:01;93514.22;;;20.82;20.88
41062;BME280;26812;42.662;23.352;2023-02-26T11:25:30;93518.19;;;21.01;20.72
41062;BME280;26812;42.662;23.352;2023-02-26T11:28:21;93510.19;;;21.10;20.85
41062;BME280;26812;42.662;23.352;2023-02-26T11:30:45;93517.66;;;21.33;20.30
41062;BME280;26812;42.662;23.352;2023-02-26T11:33:20;93534.59;;;21.28;20.25
41062;BME280;26812;42.662;23.352;2023-02-26T11:35:47;93546.41;;;20.98;20.87
41062;BME280;26812;42.662;23.352;2023-02-26T11:38:21;93560.50;;;21.47;21.15
41062;BME280;26812;42.662;23.352;2023-02-26T11:40:53;93560.75;;;20.82;21.29
41062;BME280;26812;42.662;23.352;2023-02-26T11:43:22;93560.38;;;20.53;21.49
41062;BME280;26812;42.662;23.352;2023-02-26T11:45:57;93519.13;;;20.37;21.41
41062;BME280;26812;42.662;23.352;2023-02-26T11:48:45;93565.63;;;20.06;22.06
41062;BME280;26812;42.662;23.352;2023-02-26T11:51:13;93610.25;;;20.30;21.49
41062;BME280;26812;42.662;23.352;2023-02-26T11:53:48;93582.66;;;20.21;22.66
41062;BME280;26812;42.662;23.352;2023-02-26T11:56:40;93595.31;;;20.38;21.76
41062;BME280;26812;42.662;23.352;2023-02-26T11:59:26;93592.09;;;19.79;21.19
41062;BME280;26812;42.662;23.352;2023-02-26T12:01:54;93584.06;;;20.90;21.55
41062;BME280;26812;42.662;23.352;2023-02-26T12:04:22;93587.13;;;21.46;20.78
41062;BME280;26812;42.662;23.352;2023-02-26T12:06:51;93626.19;;;21.74;21.01
41062;BME280;26812;42.662;23.352;2023-02-26T12:09:17;93590.84;;;21.56;21.83
41062;BME280;26812;42.662;23.352;2023-02-26T12:20:19;93612.25;;;22.67;21.75
41062;BME280;26812;42.662;23.352;2023-02-26T12:22:50;93624.75;;;22.68;22.00
41062;BME280;26812;42.662;23.352;2023-02-26T13:01:09;93645.19;;;22.47;21.21
41062;BME280;26812;42.662;23.352;2023-02-26T13:06:49;93603.13;;;21.24;22.26
41062;BME280;26812;42.662;23.352;2023-02-26T13:12:25;93640.13;;;20.14;24.82
41062;BME280;26812;42.662;23.352;2023-02-26T13:20:38;93649.78;;;20.26;23.00
41062;BME280;26812;42.662;23.352;2023-02-26T13:23:16;93653.94;;;20.37;23.14
41062;BME280;26812;42.662;23.352;2023-02-26T13:26:06;93647.09;;;20.22;23.89
41062;BME280;26812;42.662;23.352;2023-02-26T13:28:43;93645.06;;;20.91;23.78
41062;BME280;26812;42.662;23.352;2023-02-26T13:31:17;93646.66;;;21.15;23.50
41062;BME280;26812;42.662;23.352;2023-02-26T13:33:45;93615.00;;;22.08;22.40
41062;BME280;26812;42.662;23.352;2023-02-26T13:36:13;93605.56;;;22.28;21.87
41062;BME280;26812;42.662;23.352;2023-02-26T13:44:34;93620.59;;;22.60;22.80
41062;BME280;26812;42.662;23.352;2023-02-26T13:50:03;93613.69;;;22.36;23.39
41062;BME280;26812;42.662;23.352;2023-02-26T13:52:33;93612.97;;;21.88;23.93
41062;BME280;26812;42.662;23.352;2023-02-26T13:55:01;93613.34;;;21.90;23.67
41062;BME280;26812;42.662;23.352;2023-02-26T13:57:41;93637.38;;;21.59;24.32
41062;BME280;26812;42.662;23.352;2023-02-26T14:00:22;93632.03;;;21.76;24.16
41062;BME280;26812;42.662;23.352;2023-02-26T14:02:51;93604.41;;;21.16;25.53
41062;BME280;26812;42.662;23.352;2023-02-26T14:13:21;93606.94;;;21.54;22.64
41062;BME280;26812;42.662;23.352;2023-02-26T14:16:10;93630.19;;;21.46;23.24
41062;BME280;26812;42.662;23.352;2023-02-26T14:24:05;93639.72;;;20.50;24.65
41062;BME280;26812;42.662;23.352;2023-02-26T14:26:37;93637.00;;;20.15;24.65
41062;BME280;26812;42.662;23.352;2023-02-26T14:29:13;93624.00;;;20.27;23.20
41062;BME280;26812;42.662;23.352;2023-02-26T14:32:11;93647.88;;;20.23;23.44
41062;BME280;26812;42.662;23.352;2023-02-26T14:34:47;93632.00;;;20.07;23.26
41062;BME280;26812;42.662;23.352;2023-02-26T14:37:18;93646.38;;;20.49;22.97
41062;BME280;26812;42.662;23.352;2023-02-26T14:39:57;93635.31;;;20.90;22.32
41062;BME280;26812;42.662;23.352;2023-02-26T14:42:37;93657.38;;;20.75;22.36
41062;BME280;26812;42.662;23.352;2023-02-26T14:45:37;93654.94;;;20.16;23.58
41062;BME280;26812;42.662;23.352;2023-02-26T14:48:05;93631.81;;;19.91;23.04
41062;BME280;26812;42.662;23.352;2023-02-26T14:56:53;93672.94;;;20.14;23.73
41062;BME280;26812;42.662;23.352;2023-02-26T15:16:05;93669.41;;;19.28;25.11
41062;BME280;26812;42.662;23.352;2023-02-26T15:24:10;93668.97;;;19.81;24.54
41062;BME280;26812;42.662;23.352;2023-02-26T15:26:45;93681.63;;;19.68;24.85
41062;BME280;26812;42.662;23.352;2023-02-26T15:29:12;93680.09;;;19.63;25.31
41062;BME280;26812;42.662;23.352;2023-02-26T15:31:44;93682.69;;;19.77;25.05
41062;BME280;26812;42.662;23.352;2023-02-26T15:34:13;93692.72;;;19.88;25.48
41062;BME280;26812;42.662;23.352;2023-02-26T15:36:43;93682.22;;;19.38;26.83
41062;BME280;26812;42.662;23.352;2023-02-26T15:39:09;93700.47;;;19.48;26.77
41062;BME280;26812;42.662;23.352;2023-02-26T15:41:35;93681.59;;;19.16;27.70
41062;BME280;26812;42.662;23.352;2023-02-26T15:44:14;93696.75;;;19.20;27.66
41062;BME280;26812;42.662;23.352;2023-02-26T15:46:43;93706.66;;;19.52;26.89
41062;BME280;26812;42.662;23.352;2023-02-26T15:49:39;93685.47;;;19.18;26.86
41062;BME280;26812;42.662;23.352;2023-02-26T15:52:07;93691.44;;;19.03;27.55
41062;BME280;26812;42.662;23.352;2023-02-26T15:54:40;93708.97;;;19.05;27.42
41062;BME280;26812;42.662;23.352;2023-02-26T15:57:08;93740.78;;;19.26;27.65
41062;BME280;26812;42.662;23.352;2023-02-26T15:59:37;93701.28;;;19.45;27.64
41062;BME280;26812;42.662;23.352;2023-02-26T16:02:34;93743.56;;;19.22;27.85
41062;BME280;26812;42.662;23.352;2023-02-26T16:05:01;93736.81;;;19.41;27.25
41062;BME280;26812;42.662;23.352;2023-02-26T16:07:27;93746.50;;;18.83;28.40
41062;BME280;26812;42.662;23.352;2023-02-26T16:09:54;93740.66;;;18.81;28.79
41062;BME280;26812;42.662;23.352;2023-02-26T16:12:30;93722.31;;;18.85;28.62